Hailesboro, NY (13645)

1:57 AM EST on January 19, 2017 (GMT -0500)
Main St., Hailesboro | | Change Station

Elev 978 ft 44.31 °N, 75.44 °W | Updated 8 seconds ago

Overcast
Overcast
34.5 °F
Feels Like 30 °F
N
5.0
Wind Variable Wind from WSW

Today
High -- | Low -- °F
--% Chance of Precip.
Yesterday
High -- | Low -- °F
Precip. -- in
Pressure 29.98 in
Visibility 5.0 miles
Clouds Overcast 200 ft
Windchill 30 °F
Dew Point 33 °F
Humidity 98%
Rainfall 0.00 in
Snow Depth Not available.
7:31 AM 4:54 PM
Waning Gibbous, 56% visible
METAR KGTB 190558Z AUTO 24005KT 5SM BR OVC002 01/01 A2995 RMK AO2 UPE34DZB34E47 SLP150 P0001 60001 T00140008 10014 20004 58000
Pressure 29.98 in
Visibility 5.0 miles
Clouds Overcast 200 ft
Windchill 30 °F
Dew Point 33 °F
Humidity 98%
Rainfall 0.00 in
Snow Depth Not available.
7:31 AM 4:54 PM
Waning Gibbous, 56% visible
METAR KGTB 190558Z AUTO 24005KT 5SM BR OVC002 01/01 A2995 RMK AO2 UPE34DZB34E47 SLP150 P0001 60001 T00140008 10014 20004 58000

Get Your Daily Forecast Email!

Thanks for signing up!

Be on the lookout for a verification email in your inbox.

You'll start receiving the daily forecast at 8 AM.

×

10-Day Weather Forecast

Almanac

Astronomy

Jan. 19, 2017 Rise Set
Actual Time
Civil Twilight
Nautical Twilight
Astronomical Twilight
Moon
Length of Visible Light
Length of Day
Tomorrow will be .
, % of the Moon is Illuminated

Today's Extremes

State Highs State Lows

Community

WunderPhotos

Upload Photos

1,962,540 photos uploaded!

WunderBlog® & News

Nearby

Air Quality

  Air Quality AQ Index Pollutant
Not available.

Snow Depth

Station Depth Elevation

Earthquake Activity

City Distance Mag. Time & Date
Minimum magnitude displayed is 2.5.

Coastal Water Temperatures

Place Temperature

Stations

Nearby Weather Stations

Station Location Temp. Windchill Dew Point Humidity Wind Precip. Elev Updated Type
                   

Watches & Warnings

There are currently no watches in effect.